Blytheville, AR (72316)

2:32 PM CST on December 17, 2014 (GMT -0600)
Arkansas International | Change Station
CLOSE
Current Station
Airport
Location: Blytheville,
Elevation: 256 ft
Nearby Weather Stations

Elev 256 ft 35.96 °N, 89.94 °W | Updated 1 hour ago

Overcast
Overcast
39 °F
Feels Like 37 °F
N
4
Wind Variable Wind from North

Today
High -- | Low -- °F
--% Chance of Precip.
Yesterday
High -- | Low -- °F
Precip. -- in
7:04 AM 4:47 PM
Waning Crescent, 20% visible
Pressure 30.31 in
Visibility 10.0 miles
Clouds Scattered Clouds 2000 ft
Overcast 15000 ft
Windchill 37 °F
Dew Point 30 °F
Humidity 70%
Rainfall 0.00 in
Snow Depth Not available.
UV 1 out of 12
Pollen .10 out of 12
Air Quality Not available.
Flu Activity Not available.
METAR KBYH 171850Z 01003KT 10SM SCT020 OVC150 04/M01 A3031

More Conditions Fewer Conditions

Pressure 30.31 in
Visibility 10.0 miles
Clouds Scattered Clouds 2000 ft
Overcast 15000 ft
Windchill 37 °F
Dew Point 30 °F
Humidity 70%
Rainfall 0.00 in
Snow Depth Not available.
UV 1 out of 12
Pollen .10 out of 12
Air Quality Not available.
Flu Activity Not available.
METAR KBYH 171850Z 01003KT 10SM SCT020 OVC150 04/M01 A3031

More Conditions Fewer Conditions

10-Day Weather Forecast

Almanac

Astronomy

Dec. 17, 2014 Rise Set
Actual Time
Civil Twilight
Nautical Twilight
Astronomical Twilight
Moon
Length of Visible Light
Length of Day
Tomorrow will be .
, % of the Moon is Illuminated

Today's Extremes

State Highs State Lows

Community

WunderPhotos

Upload Photos

1,778,803 photos uploaded!

WunderBlogs® & News

Nearby

Air Quality

  Air Quality AQ Index Pollutant
Not available.

Snow Depth

Station Depth Elevation

Earthquake Activity

City Distance Mag. Time & Date
Minimum magnitude displayed is 2.5.

Coastal Water Temperatures

Place Temperature

Nearby Weather Stations